Kuwait City, Kuwait
Current Conditions -  °F | °C
As of 7:00 AM on Monday 22 Dec 2014 (Local Time) from OKBK Reporting Station
Clear Clear  
Wind Chill: 11°   Ceiling: Unl
Heat Index: 11°   Visibility: 6mi
Dew Point:   Wind: 9mph
Humidity: 71%   Direction: 310°NW
Pressure: 30.09"   Gusts: NA
Location:  29.22°N, 47.98°E
Report Text: OKBK 220400Z 31008KT CAVOK 11/06 Q1019 NOSIG
Loading
Personal Weather Stations






























Interactive Weather Map New forecast layout! Learn more

10-Day Weather Forecast

Advertisements
Track Severe Weather on mobile